Latest Coastal Weather Observations for Moorabbin Airport

IDV60701

Issued at 12:41 am EDT Saturday 20 December 2014 (issued every 10 minutes, with the page automatically refreshed every 10 minutes)

About coastal observations | Map of coastal stations | Coastal observations for VIC | Marine services | Other Formats
Station Details ID: 086077 Name: MOORABBIN AIRPORT Lat: -37.98 Lon: 145.10 Height: 12.1 m
Data from the previous 72 hours. | See also: Recent months at Moorabbin Airport
Date/Time
EDT
Temp

°C
Wind Pressure Rain
since 9am
mm
Weather Cloud Vis
km
Sea
Height
m
Swell
Dir
 
Speed
knots
Gust
knots
hPa Trend Height
m
Period
s
Dir
20/12:30am 14.2 ESE 5 7 1019.1 - 0.0 - Partly cloudy 10 - - - -
20/12:00am 14.2 ESE 5 6 1019.4 - 0.0 - Cloudy 30 - - - -
 
Date/Time
EDT
Temp

°C
Wind Pressure Rain
since 9am
mm
Weather Cloud Vis
km
Sea
Height
m
Swell
Dir
 
Speed
knots
Gust
knots
hPa Trend Height
m
Period
s
Dir
19/11:30pm 14.2 SE 5 7 1019.7 - 0.0 - Partly cloudy 10 - - - -
19/11:00pm 13.9 ESE 5 6 1020.0 - 0.0 - Partly cloudy 10 - - - -
19/10:30pm 13.4 ESE 6 7 1019.9 - 0.0 - Partly cloudy 10 - - - -
19/10:00pm 13.7 SE 6 8 1019.8 - 0.0 - - 10 - - - -
19/09:30pm 14.7 S 7 10 1019.6 - 0.0 - Partly cloudy 10 - - - -
19/09:00pm 15.7 S 8 12 1019.6 - 0.0 - Cloudy 10 - - - -
19/08:30pm 15.8 SSW 11 14 1019.6 - 0.0 - Partly cloudy 10 - - - -
19/08:00pm 16.2 SSW 12 16 1019.5 - 0.0 - Partly cloudy 10 - - - -
19/07:30pm 16.7 SSW 13 17 1019.0 - 0.0 - - 8 - - - -
19/07:00pm 17.3 SSW 13 17 1018.5 - 0.0 - - 10 - - - -
19/06:30pm 17.1 SSW 13 19 1018.2 - 0.0 - - 10 - - - -
19/06:00pm 17.8 SSW 13 17 1018.0 - 0.0 - - 10 - - - -
19/05:30pm 17.8 SSW 13 18 1017.9 - 0.0 - - 10 - - - -
19/05:00pm 17.8 SSW 12 16 1017.9 - 0.0 - - 10 - - - -
19/04:30pm 18.2 SSW 12 16 1017.8 - 0.0 - - 10 - - - -
19/04:00pm 18.9 SSW 12 17 1017.7 - 0.0 - - 10 - - - -
19/03:30pm 18.2 SSW 12 18 1017.7 - 0.0 - - 10 - - - -
19/03:00pm 18.2 SSW 13 17 1017.6 - 0.0 - - 10 - - - -
19/02:30pm 17.8 SW 12 18 1017.9 - 0.0 - Partly cloudy 10 - - - -
19/02:00pm 18.2 SSW 13 19 1017.8 - 0.0 - - 10 - - - -
19/01:30pm 17.9 SW 12 18 1017.7 - 0.0 - - 10 - - - -
19/01:00pm 18.1 SW 13 21 1018.0 - 0.0 - - 10 - - - -
19/12:30pm 17.9 SW 13 20 1017.9 - 0.0 - Partly cloudy 10 - - - -
19/12:00pm 16.9 SW 12 17 1017.7 - 0.0 - Mostly cloudy 10 - - - -
19/11:30am 16.2 SW 12 16 1017.6 - 0.0 - Partly cloudy 10 - - - -
19/11:00am 16.9 WSW 12 19 1017.4 - 0.0 - Partly cloudy 10 - - - -
19/10:30am 16.3 WSW 11 16 1017.3 - 0.0 - Partly cloudy 10 - - - -
19/10:00am 15.7 SW 13 18 1017.0 - 0.0 - Partly cloudy 10 - - - -
19/09:30am 16.0 WSW 13 18 1016.6 - 0.0 - Partly cloudy 10 - - - -
19/09:00am 15.4 WSW 12 17 1016.5 - 9.4 - Mostly cloudy 10 - - - -
19/08:30am 15.4 WSW 12 17 1016.1 - 9.4 - Partly cloudy 10 - - - -
19/08:00am 14.6 WSW 11 15 1015.9 - 9.4 - Partly cloudy 10 - - - -
19/07:30am 14.0 W 11 17 1015.4 - 9.4 - Partly cloudy 10 - - - -
19/07:00am 14.0 WSW 8 13 1015.2 - 9.4 - Partly cloudy 10 - - - -
19/06:30am 13.6 WSW 10 16 1014.9 - 9.4 - Partly cloudy 10 - - - -
19/06:00am 13.7 WSW 12 17 1014.7 - 9.4 - Mostly cloudy 10 - - - -
19/05:30am 13.6 WSW 10 15 1014.4 - 9.4 - Partly cloudy 10 - - - -
19/05:00am 13.6 WSW 9 14 1014.1 - 9.4 - Partly cloudy 10 - - - -
19/04:30am 14.2 WSW 11 16 1013.7 - 9.4 - Partly cloudy 10 - - - -
19/04:00am 14.0 WSW 9 16 1013.4 - 9.4 - Partly cloudy 10 - - - -
19/03:30am 14.2 W 7 12 1013.3 - 9.4 - Partly cloudy 10 - - - -
19/03:00am 14.1 WSW 10 16 1013.2 - 9.4 - Mostly clear 10 - - - -
19/02:30am 14.4 WSW 10 14 1013.3 - 9.4 - Partly cloudy 10 - - - -
19/02:00am 14.3 WSW 11 16 1013.1 - 9.4 - Partly cloudy 10 - - - -
19/01:30am 14.4 WSW 10 14 1013.2 - 9.4 - - 10 - - - -
19/01:00am 14.6 WSW 11 15 1013.3 - 9.4 - - 10 - - - -
19/12:30am 14.7 WSW 8 13 1013.2 - 9.4 - - 10 - - - -
19/12:00am 14.6 WSW 9 15 1013.1 - 9.4 - - 10 - - - -
 
Date/Time
EDT
Temp

°C
Wind Pressure Rain
since 9am
mm
Weather Cloud Vis
km
Sea
Height
m
Swell
Dir
 
Speed
knots
Gust
knots
hPa Trend Height
m
Period
s
Dir
18/11:30pm 14.9 WSW 7 11 1013.0 - 9.4 - Partly cloudy 10 - - - -
18/11:00pm 15.3 WSW 10 17 1013.0 - 9.4 - Partly cloudy 10 - - - -
18/10:30pm 15.3 WSW 10 17 1012.8 - 9.4 - Partly cloudy 10 - - - -
18/10:00pm 14.8 SW 9 14 1012.6 - 9.4 - Partly cloudy 10 - - - -
18/09:30pm 15.3 SW 9 12 1012.2 - 9.4 - Partly cloudy 10 - - - -
18/09:00pm 14.6 SW 7 9 1011.8 - 9.4 - Partly cloudy 10 - - - -
18/08:30pm 14.7 SW 6 9 1011.5 - 9.4 - Partly cloudy 10 - - - -
18/08:00pm 15.0 SW 5 6 1011.2 - 9.4 - Partly cloudy 10 - - - -
18/07:31pm 14.6 SSW 8 13 1010.8 - 9.4 - Partly cloudy 9 - - - -
18/07:30pm 14.6 SSW 8 13 1010.8 - 9.4 - Partly cloudy 9 - - - -
18/07:00pm 14.7 SSW 9 11 1010.3 - 4.8 - Partly cloudy 5 - - - -
18/06:59pm 14.7 SSW 9 11 1010.3 - 4.6 - Partly cloudy 5 - - - -
18/06:30pm 16.0 WSW 10 15 1009.7 - 4.0 - Partly cloudy 10 - - - -
18/06:00pm 15.5 WSW 6 9 1009.1 - 4.0 Recent precip. Cloudy 10 - - - -
18/05:30pm 14.5 W 9 16 1009.3 - 3.4 - Partly cloudy 10 - - - -
18/05:00pm 14.9 W 13 19 1009.0 - 3.0 - Partly cloudy 10 - - - -
18/04:30pm 15.0 WSW 13 19 1008.8 - 2.0 - Partly cloudy 8 - - - -
18/04:00pm 15.4 SW 17 23 1008.3 - 0.6 - Partly cloudy 9 - - - -
18/03:30pm 18.1 WSW 17 33 1006.6 - 0.0 - Partly cloudy 10 - - - -
18/03:29pm 19.2 WSW 15 33 1006.5 - 0.0 - Partly cloudy 10 - - - -
18/03:00pm 22.1 WSW 14 19 1005.6 - 0.0 - Mostly cloudy 10 - - - -
18/02:30pm 21.8 WSW 13 17 1005.3 - 0.0 - - 10 - - - -
18/02:00pm 22.0 WSW 14 18 1005.3 - 0.0 - - 10 - - - -
18/01:30pm 22.7 WSW 11 18 1005.5 - 0.0 - - 10 - - - -
18/01:00pm 21.2 WSW 14 19 1005.7 - 0.0 - Partly cloudy 10 - - - -
18/12:30pm 21.0 WSW 14 21 1005.8 - 0.0 - Partly cloudy 10 - - - -
18/12:00pm 20.6 WSW 15 25 1005.8 - 0.0 - Mostly cloudy 10 - - - -
18/11:59am 20.5 WSW 15 25 1005.8 - 0.0 - - 10 - - - -
18/11:30am 20.0 WSW 14 20 1005.9 - 0.0 - - 10 - - - -
18/11:00am 19.8 SW 15 19 1005.6 - 0.0 - - 10 - - - -
18/10:30am 21.7 WNW 11 16 1005.5 - 0.0 - - 10 - - - -
18/10:00am 21.1 NW 9 14 1005.7 - 0.0 - - 10 - - - -
18/09:30am 20.5 NW 10 16 1005.7 - 0.0 - - 10 - - - -
18/09:00am 18.5 NW 9 13 1005.6 - 0.0 - - 10 - - - -
18/08:30am 17.0 NNW 7 11 1005.5 - 0.0 - - 10 - - - -
18/08:00am 15.6 NNW 7 9 1005.7 - 0.0 - - 10 - - - -
18/07:30am 14.2 N 6 9 1005.4 - 0.0 - - 10 - - - -
18/07:00am 12.9 NNW 6 8 1005.5 - 0.0 - - 10 - - - -
18/06:30am 11.4 N 4 5 1005.5 - 0.0 - - 10 - - - -
18/06:00am 11.1 N 6 7 1005.5 - 0.0 - Mostly cloudy 10 - - - -
18/05:30am 11.0 N 7 9 1005.2 - 0.0 - - 10 - - - -
18/05:00am 10.4 N 7 8 1005.2 - 0.0 - - 10 - - - -
18/04:30am 11.1 N 2 5 1005.3 - 0.0 - - 10 - - - -
18/04:00am 10.3 NNE 3 5 1005.1 - 0.0 - - 10 - - - -
18/03:30am 10.5 CALM 0 3 1005.3 - 0.0 - - 10 - - - -
18/03:00am 11.0 N 2 4 1005.4 - 0.0 - - 10 - - - -
18/02:30am 11.4 ENE 3 4 1005.5 - 0.0 - - 10 - - - -
18/02:00am 11.7 E 6 7 1005.6 - 0.0 - - 10 - - - -
18/01:30am 11.7 ESE 4 5 1006.1 - 0.0 - - 10 - - - -
18/01:00am 12.2 SE 5 7 1006.3 - 0.0 - - 10 - - - -
18/12:30am 12.8 SE 7 10 1006.6 - 0.0 - - 10 - - - -
18/12:00am 13.1 SE 9 11 1007.1 - 0.0 - - 10 - - - -
 
Date/Time
EDT
Temp

°C
Wind Pressure Rain
since 9am
mm
Weather Cloud Vis
km
Sea
Height
m
Swell
Dir
 
Speed
knots
Gust
knots
hPa Trend Height
m
Period
s
Dir
17/11:30pm 13.5 SE 7 9 1007.6 - 0.0 - - 10 - - - -
17/11:00pm 14.0 SE 8 11 1007.9 - 0.0 - - 10 - - - -
17/10:30pm 14.3 SE 9 11 1008.1 - 0.0 - - 10 - - - -
17/10:00pm 14.2 SE 9 12 1008.3 - 0.0 - - 10 - - - -
17/09:30pm 14.8 SE 10 13 1008.4 - 0.0 - - 10 - - - -
17/09:00pm 15.3 SE 10 14 1008.1 - 0.0 - - 10 - - - -
17/08:30pm 16.2 SE 11 14 1008.0 - 0.0 - - 10 - - - -
17/08:00pm 17.3 SE 14 18 1008.0 - 0.0 - - 10 - - - -
17/07:30pm 18.2 SE 14 18 1007.7 - 0.0 - - 10 - - - -
17/07:00pm 18.9 SSE 14 18 1007.4 - 0.0 - - 10 - - - -
17/06:30pm 19.8 S 11 16 1007.2 - 0.0 - - 10 - - - -
17/06:00pm 20.3 SSW 10 14 1007.1 - 0.0 - - 10 - - - -
17/05:30pm 20.0 S 10 14 1007.2 - 0.0 - - 10 - - - -
17/05:00pm 20.2 S 11 15 1007.5 - 0.0 - - 10 - - - -
17/04:30pm 20.0 SSW 10 14 1007.6 - 0.0 - - 10 - - - -
17/04:00pm 19.5 SSW 10 15 1007.9 - 0.0 - - 10 - - - -
17/03:30pm 20.0 SW 8 11 1008.2 - 0.0 - - 10 - - - -
17/03:00pm 20.0 SW 8 13 1008.5 - 0.0 - - 10 - - - -
17/02:30pm 19.4 SW 8 13 1008.7 - 0.0 - - 10 - - - -
17/02:00pm 19.8 SSW 7 11 1009.0 - 0.0 - - 10 - - - -
17/01:30pm 19.1 SW 7 9 1009.3 - 0.0 - - 10 - - - -
17/01:00pm 17.8 SW 7 13 1009.5 - 0.0 - - 10 - - - -
17/12:30pm 17.9 SW 6 11 1009.6 - 0.0 - - 10 - - - -
17/12:00pm 18.4 SW 9 14 1009.6 - 0.0 - - 10 - - - -
17/11:30am 17.1 WSW 8 12 1009.5 - 0.0 - - 10 - - - -
17/11:00am 17.2 WSW 10 15 1009.4 - 0.0 - - 10 - - - -
17/10:30am 16.6 WSW 11 16 1009.4 - 0.0 - - 10 - - - -
17/10:00am 16.6 WSW 10 14 1009.4 - 0.0 - - 10 - - - -
17/09:30am 16.3 W 11 15 1009.3 - 0.0 - Partly cloudy 10 - - - -
17/09:00am 16.0 W 9 14 1009.0 - 0.0 - - 10 - - - -
17/08:30am 14.9 W 10 15 1008.6 - 0.0 - - 10 - - - -
17/08:00am 14.4 W 9 13 1008.3 - 0.0 - - 10 - - - -
17/07:30am 13.5 NW 8 11 1008.1 - 0.0 - - 10 - - - -
17/07:00am 12.8 WNW 8 11 1007.7 - 0.0 - Partly cloudy 10 - - - -
17/06:30am 13.3 WNW 6 10 1007.4 - 0.0 - Partly cloudy 10 - - - -
17/06:00am 12.9 WNW 5 9 1006.9 - 0.0 - Partly cloudy 10 - - - -
17/05:30am 13.4 W 8 11 1006.6 - 0.0 - Partly cloudy 10 - - - -
17/05:00am 13.5 W 9 11 1006.2 - 0.0 - Partly cloudy 10 - - - -
17/04:30am 13.1 WNW 7 11 1005.9 - 0.0 - Partly cloudy 10 - - - -
17/04:00am 13.3 WNW 7 11 1005.8 - 0.0 - Partly cloudy 10 - - - -
17/03:30am 13.2 WNW 6 9 1005.9 - 0.0 - Partly cloudy 10 - - - -
17/03:00am 13.4 WNW 9 13 1005.7 - 0.0 - - 10 - - - -
17/02:30am 13.9 WNW 10 15 1005.6 - 0.0 - Partly cloudy 10 - - - -
17/02:00am 14.3 WSW 11 17 1005.5 - 0.0 - Partly cloudy 10 - - - -
17/01:30am 14.4 WSW 11 16 1005.4 - 0.0 - Partly cloudy 10 - - - -
17/01:00am 14.4 WSW 12 18 1005.4 - 0.0 - Partly cloudy 10 - - - -

Other Formats:

Comma delimited format used in spreadsheet applications
http://www.bom.gov.au/fwo/IDV60701/IDV60701.94870.axf

JavaScript Object Notation format (JSON) in row-major order
http://www.bom.gov.au/fwo/IDV60701/IDV60701.94870.json